Time;durP1;ratioP1;P1;durP2;ratioP2;P2;SDS_P1;SDS_P2;PMS_P1;PMS_P2;Temp;Humidity;BMP_temperature;BMP_pressure;BME280_temperature;BME280_humidity;BME280_pressure;Samples;Min_cycle;Max_cycle;Signal;HPM_P1;HPM_P2
2023/05/15 00:00:43;;;;;;;4.38;1.63;;;10.00;99.90;;;;;;4957801;29;20121;-77
2023/05/15 00:03:10;;;;;;;2.50;1.77;;;10.00;99.90;;;;;;4957807;28;20043;-77
2023/05/15 00:05:36;;;;;;;2.97;1.70;;;10.00;99.90;;;;;;4957775;28;20023;-77
2023/05/15 00:08:02;;;;;;;1.60;1.45;;;9.90;99.90;;;;;;4957868;29;20031;-76
2023/05/15 00:10:27;;;;;;;1.52;1.42;;;10.00;99.90;;;;;;4972831;28;20038;-77
2023/05/15 00:12:54;;;;;;;2.00;1.50;;;10.00;99.90;;;;;;4956382;28;20493;-77
2023/05/15 00:15:20;;;;;;;2.17;1.77;;;9.90;99.90;;;;;;4957400;28;20062;-77
2023/05/15 00:17:45;;;;;;;1.73;1.63;;;9.90;99.90;;;;;;4956430;29;20023;-76
2023/05/15 00:20:11;;;;;;;1.40;1.30;;;9.90;99.90;;;;;;4957916;29;20034;-77
2023/05/15 00:22:37;;;;;;;1.30;1.20;;;9.80;99.90;;;;;;4956161;28;20035;-76
2023/05/15 00:25:03;;;;;;;1.92;1.77;;;9.90;99.90;;;;;;4957580;28;20027;-77
2023/05/15 00:27:29;;;;;;;1.67;1.48;;;9.80;99.90;;;;;;4957415;28;20055;-77
2023/05/15 00:29:54;;;;;;;1.40;1.30;;;9.80;99.90;;;;;;4957611;29;20441;-77
2023/05/15 00:32:20;;;;;;;1.52;1.42;;;9.80;99.90;;;;;;4956346;29;20125;-77
2023/05/15 00:34:45;;;;;;;1.88;1.65;;;9.70;99.90;;;;;;4956833;28;20027;-77
2023/05/15 00:37:11;;;;;;;4.82;1.73;;;9.70;99.90;;;;;;4956011;28;20024;-77
2023/05/15 00:39:37;;;;;;;1.60;1.50;;;9.70;99.90;;;;;;4972114;28;20475;-77
2023/05/15 00:42:03;;;;;;;1.90;1.80;;;9.60;99.90;;;;;;4957396;29;20400;-77
2023/05/15 00:44:30;;;;;;;1.90;1.67;;;9.60;99.90;;;;;;4957070;28;20023;-77
2023/05/15 00:46:58;;;;;;;1.35;1.25;;;9.60;99.90;;;;;;4955857;29;20174;-77
2023/05/15 00:49:26;;;;;;;1.52;1.42;;;9.60;99.90;;;;;;4955902;29;20027;-77
2023/05/15 00:51:52;;;;;;;1.63;1.38;;;9.60;99.90;;;;;;4957111;28;20027;-77
2023/05/15 00:54:17;;;;;;;2.13;1.88;;;9.60;99.90;;;;;;4955726;28;20034;-77
2023/05/15 00:56:46;;;;;;;1.98;1.85;;;9.60;99.90;;;;;;4955659;29;20416;-77
2023/05/15 00:59:12;;;;;;;2.25;1.80;;;9.50;99.90;;;;;;4956917;28;20019;-77
2023/05/15 01:01:38;;;;;;;2.03;1.42;;;9.60;99.90;;;;;;4955839;28;20141;-77
2023/05/15 01:04:04;;;;;;;1.48;1.33;;;9.60;99.90;;;;;;4956898;28;20035;-77
2023/05/15 01:06:30;;;;;;;2.05;1.40;;;9.50;99.90;;;;;;4956456;29;20085;-77
2023/05/15 01:09:01;;;;;;;1.45;1.35;;;9.50;99.90;;;;;;4956833;28;20494;-77
2023/05/15 01:11:34;;;;;;;1.52;1.40;;;9.50;99.90;;;;;;4955583;29;20489;-77
2023/05/15 01:14:04;;;;;;;1.45;1.35;;;9.40;99.90;;;;;;4956693;28;20023;-77
2023/05/15 01:16:30;;;;;;;2.13;1.50;;;9.40;99.90;;;;;;4956604;28;20027;-77
2023/05/15 01:18:55;;;;;;;4.95;1.55;;;9.40;99.90;;;;;;4955458;29;20030;-77
2023/05/15 01:21:33;;;;;;;1.83;1.63;;;9.40;99.90;;;;;;4956841;29;20114;-77
2023/05/15 01:24:39;;;;;;;1.85;1.73;;;9.30;99.90;;;;;;4956725;28;20388;-77
2023/05/15 01:27:19;;;;;;;1.77;1.67;;;9.30;99.90;;;;;;4956719;28;20023;-77
2023/05/15 01:30:16;;;;;;;1.77;1.67;;;9.30;99.90;;;;;;4971407;28;20028;-77
2023/05/15 01:32:47;;;;;;;;;;;9.30;99.90;;;;;;4955746;28;20424;-77
2023/05/15 01:35:16;;;;;;;1.58;1.48;;;9.30;99.90;;;;;;4955784;29;19906;-77
2023/05/15 01:37:48;;;;;;;2.42;1.77;;;9.30;99.90;;;;;;4956405;29;20469;-77
2023/05/15 01:40:16;;;;;;;2.15;2.05;;;9.30;99.90;;;;;;4955373;29;20033;-77
2023/05/15 01:42:51;;;;;;;5.00;1.98;;;9.30;99.90;;;;;;4954917;28;20043;-77
2023/05/15 01:45:19;;;;;;;5.20;1.27;;;9.20;99.90;;;;;;4971379;28;20488;-77
2023/05/15 01:47:47;;;;;;;2.70;2.35;;;9.20;99.90;;;;;;4956034;28;20027;-77
2023/05/15 01:50:15;;;;;;;2.60;1.95;;;9.20;99.90;;;;;;4956087;28;20023;-77
2023/05/15 01:52:53;;;;;;;2.85;1.80;;;9.20;99.90;;;;;;4955970;28;20051;-77
2023/05/15 01:55:22;;;;;;;2.28;1.70;;;9.20;99.90;;;;;;4956111;28;20765;-77
2023/05/15 01:57:50;;;;;;;2.25;1.77;;;9.10;99.90;;;;;;4970882;28;20440;-76
2023/05/15 02:00:16;;;;;;;1.73;1.48;;;9.00;99.90;;;;;;4970885;28;20023;-77
2023/05/15 02:02:43;;;;;;;2.08;1.98;;;9.10;99.90;;;;;;4955600;28;20500;-77
2023/05/15 02:05:09;;;;;;;2.05;1.85;;;9.10;99.90;;;;;;4956032;28;20418;-77
2023/05/15 02:07:36;;;;;;;4.05;2.10;;;9.10;99.90;;;;;;4954730;29;20058;-77
2023/05/15 02:10:02;;;;;;;1.50;1.40;;;9.20;99.90;;;;;;4955929;28;20471;-76
2023/05/15 02:12:29;;;;;;;6.55;2.17;;;9.20;99.90;;;;;;4954726;29;20567;-77
2023/05/15 02:14:58;;;;;;;1.90;1.75;;;9.20;99.90;;;;;;4955356;28;20032;-77
2023/05/15 02:17:24;;;;;;;4.28;1.80;;;9.20;99.90;;;;;;4954520;28;20019;-77
2023/05/15 02:19:50;;;;;;;1.73;1.63;;;9.20;99.90;;;;;;4955420;28;20408;-77
2023/05/15 02:22:15;;;;;;;2.17;1.75;;;9.20;99.90;;;;;;4970388;28;20030;-77
2023/05/15 02:24:41;;;;;;;1.45;1.35;;;9.20;99.90;;;;;;4955305;28;20106;-77
2023/05/15 02:27:26;;;;;;;1.25;1.15;;;9.20;99.90;;;;;;4955467;29;20059;-77
2023/05/15 02:30:12;;;;;;;2.53;1.40;;;9.20;99.90;;;;;;4955288;28;20035;-76
2023/05/15 02:32:53;;;;;;;2.47;1.85;;;9.10;99.90;;;;;;4954031;28;20054;-76
2023/05/15 02:35:25;;;;;;;1.92;1.75;;;9.10;99.90;;;;;;4955059;29;20019;-76
2023/05/15 02:37:54;;;;;;;1.75;1.65;;;9.10;99.90;;;;;;4954909;29;20019;-77
2023/05/15 02:40:22;;;;;;;4.00;2.38;;;9.10;99.90;;;;;;4955249;28;20027;-77
2023/05/15 02:42:51;;;;;;;2.58;2.20;;;9.10;99.90;;;;;;4955052;28;20023;-77
2023/05/15 02:45:18;;;;;;;2.67;1.90;;;9.10;99.90;;;;;;4953876;29;20495;-77
2023/05/15 02:47:44;;;;;;;5.65;1.80;;;9.10;99.90;;;;;;4954972;28;20027;-76
2023/05/15 02:50:10;;;;;;;6.65;2.58;;;9.10;99.90;;;;;;4955075;28;20102;-77
2023/05/15 02:52:36;;;;;;;5.00;1.88;;;9.10;99.90;;;;;;4953567;28;20031;-77
2023/05/15 02:55:01;;;;;;;1.85;1.48;;;9.10;99.90;;;;;;4969782;28;20111;-77
2023/05/15 02:57:27;;;;;;;1.83;1.73;;;9.10;99.90;;;;;;4954752;29;20086;-76
2023/05/15 02:59:54;;;;;;;1.90;1.70;;;9.00;99.90;;;;;;4955107;29;20024;-77
2023/05/15 03:02:20;;;;;;;1.73;1.60;;;9.00;99.90;;;;;;4954869;28;20033;-77
2023/05/15 03:04:46;;;;;;;2.90;1.80;;;9.00;99.90;;;;;;4953253;28;20469;-76
2023/05/15 03:07:13;;;;;;;1.70;1.50;;;9.00;99.90;;;;;;4954718;29;20039;-76
2023/05/15 03:09:39;;;;;;;2.42;1.70;;;9.00;99.90;;;;;;4954609;28;20031;-77
2023/05/15 03:12:05;;;;;;;1.48;1.38;;;9.00;99.90;;;;;;4953410;29;20027;-77
2023/05/15 03:14:31;;;;;;;8.48;1.40;;;9.00;99.90;;;;;;4969407;28;20110;-77
2023/05/15 03:16:59;;;;;;;2.00;1.80;;;9.10;99.90;;;;;;4954601;29;20102;-77
2023/05/15 03:19:24;;;;;;;1.25;1.15;;;9.10;99.90;;;;;;4953382;29;20027;-77
2023/05/15 03:21:50;;;;;;;1.98;1.48;;;9.10;99.90;;;;;;4954612;28;20034;-76
2023/05/15 03:24:16;;;;;;;2.63;1.63;;;9.10;99.90;;;;;;4953118;28;20031;-77
2023/05/15 03:26:42;;;;;;;2.05;1.20;;;9.10;99.90;;;;;;4953218;29;20476;-76
2023/05/15 03:29:08;;;;;;;1.48;1.33;;;9.10;99.90;;;;;;4957093;28;20042;-76
2023/05/15 03:31:34;;;;;;;2.90;1.75;;;9.10;99.90;;;;;;4958399;29;20054;-77
2023/05/15 03:33:59;;;;;;;2.50;1.65;;;9.10;99.90;;;;;;4958173;28;20062;-76
2023/05/15 03:36:25;;;;;;;3.10;2.30;;;9.10;99.90;;;;;;4958301;29;20028;-77
2023/05/15 03:38:51;;;;;;;2.75;2.08;;;9.00;99.90;;;;;;4957144;29;20023;-77
2023/05/15 03:41:16;;;;;;;2.15;1.83;;;9.00;99.90;;;;;;4957259;28;20031;-76
2023/05/15 03:43:42;;;;;;;4.35;1.85;;;9.00;99.90;;;;;;4958070;28;20057;-76
2023/05/15 03:46:07;;;;;;;2.28;2.08;;;9.00;99.90;;;;;;4957758;29;20472;-77
2023/05/15 03:48:33;;;;;;;3.17;2.30;;;10.20;99.90;;;;;;4973119;28;20027;-76
2023/05/15 03:50:59;;;;;;;2.58;2.00;;;10.00;99.90;;;;;;4958017;29;20074;-77
2023/05/15 03:53:24;;;;;;;2.80;2.30;;;9.70;99.90;;;;;;4957101;28;20091;-76
2023/05/15 03:55:50;;;;;;;2.50;2.30;;;9.50;99.90;;;;;;4957284;28;20054;-76
2023/05/15 03:58:16;;;;;;;2.53;2.33;;;9.30;99.90;;;;;;4957194;29;20024;-76
2023/05/15 04:00:42;;;;;;;2.28;1.83;;;9.20;99.90;;;;;;4956094;29;20028;-76
2023/05/15 04:03:07;;;;;;;2.47;2.03;;;9.20;99.90;;;;;;4957044;28;20039;-76
2023/05/15 04:05:33;;;;;;;2.10;1.90;;;9.20;99.90;;;;;;4957050;29;20023;-76
2023/05/15 04:07:58;;;;;;;2.17;1.83;;;9.20;99.90;;;;;;4958278;29;20019;-76
2023/05/15 04:10:24;;;;;;;1.65;1.50;;;9.10;99.90;;;;;;4955846;29;20106;-76
2023/05/15 04:12:50;;;;;;;1.83;1.58;;;9.10;99.90;;;;;;4956953;28;20035;-75
2023/05/15 04:15:21;;;;;;;4.80;1.70;;;9.20;99.90;;;;;;4971698;28;20027;-75
2023/05/15 04:17:49;;;;;;;2.03;1.88;;;9.20;99.90;;;;;;4955547;29;20027;-76
2023/05/15 04:20:19;;;;;;;2.70;2.50;;;9.20;99.90;;;;;;4957044;28;20023;-76
2023/05/15 04:22:45;;;;;;;2.00;1.80;;;9.20;99.90;;;;;;4971782;28;20027;-76
2023/05/15 04:25:13;;;;;;;1.70;1.60;;;9.20;99.90;;;;;;4956786;29;20370;-76
2023/05/15 04:27:39;;;;;;;1.60;1.50;;;9.30;99.90;;;;;;4955446;29;20520;-76
2023/05/15 04:30:06;;;;;;;1.95;1.58;;;9.30;99.90;;;;;;4955540;29;20023;-76
2023/05/15 04:32:32;;;;;;;2.00;1.90;;;9.20;99.90;;;;;;4956639;28;20115;-75
2023/05/15 04:35:02;;;;;;;3.38;2.55;;;9.20;99.90;;;;;;4955003;28;20129;-75
2023/05/15 04:37:28;;;;;;;2.72;2.42;;;9.30;99.90;;;;;;4955147;29;20086;-76
2023/05/15 04:39:54;;;;;;;3.38;2.10;;;9.30;99.90;;;;;;4956117;28;20106;-76
2023/05/15 04:42:20;;;;;;;2.92;2.15;;;9.20;99.90;;;;;;4956663;28;20101;-76
2023/05/15 04:44:46;;;;;;;8.93;2.53;;;9.20;99.90;;;;;;4956354;28;20484;-76
2023/05/15 04:47:12;;;;;;;5.30;2.55;;;9.20;99.90;;;;;;4971341;28;20034;-76
2023/05/15 04:49:38;;;;;;;6.32;2.45;;;9.20;99.90;;;;;;4955067;29;20031;-76
2023/05/15 04:52:04;;;;;;;3.63;2.75;;;9.10;99.90;;;;;;4956244;28;20455;-76
2023/05/15 04:54:30;;;;;;;8.55;3.13;;;9.10;99.90;;;;;;4956097;28;20114;-76
2023/05/15 04:56:56;;;;;;;2.60;2.40;;;9.20;99.90;;;;;;4956335;28;20024;-76
2023/05/15 04:59:23;;;;;;;2.90;2.33;;;9.20;99.90;;;;;;4956149;28;20020;-75
2023/05/15 05:01:51;;;;;;;2.83;2.60;;;9.30;99.90;;;;;;4955000;29;20035;-75
2023/05/15 05:04:18;;;;;;;2.33;2.13;;;9.20;99.90;;;;;;4954625;28;20499;-76
2023/05/15 05:06:47;;;;;;;2.22;1.95;;;9.30;99.90;;;;;;4956047;28;20038;-76
2023/05/15 05:09:13;;;;;;;2.58;2.30;;;9.40;99.90;;;;;;4955949;28;20531;-76
2023/05/15 05:11:42;;;;;;;3.72;2.72;;;9.40;99.90;;;;;;4956013;28;20031;-75
2023/05/15 05:14:11;;;;;;;2.90;2.60;;;9.50;99.90;;;;;;4955875;28;20481;-75
2023/05/15 05:16:37;;;;;;;3.88;2.50;;;9.60;99.90;;;;;;4955385;28;20491;-76
2023/05/15 05:19:03;;;;;;;2.75;2.53;;;9.50;99.90;;;;;;4954591;29;20091;-76
2023/05/15 05:21:29;;;;;;;2.78;2.50;;;9.50;99.90;;;;;;4955867;28;20563;-76
2023/05/15 05:23:55;;;;;;;2.40;2.10;;;9.60;99.90;;;;;;4955282;28;20121;-76
2023/05/15 05:26:21;;;;;;;3.15;2.60;;;9.60;99.90;;;;;;4955096;29;20028;-76
2023/05/15 05:28:47;;;;;;;3.78;2.63;;;9.70;99.90;;;;;;4954905;29;20035;-76
2023/05/15 05:31:12;;;;;;;2.50;2.30;;;9.80;99.90;;;;;;4955556;29;20078;-76
2023/05/15 05:33:38;;;;;;;3.88;3.45;;;9.90;99.90;;;;;;4955062;28;20464;-75
2023/05/15 05:36:04;;;;;;;4.55;2.38;;;10.10;99.90;;;;;;4954201;29;20162;-76
2023/05/15 05:38:31;;;;;;;3.22;2.65;;;10.10;99.90;;;;;;4953941;29;20027;-76
2023/05/15 05:40:57;;;;;;;4.05;3.50;;;10.10;99.90;;;;;;4955363;28;20023;-76
2023/05/15 05:43:24;;;;;;;2.63;2.40;;;10.20;99.90;;;;;;4970167;28;20023;-76
2023/05/15 05:45:50;;;;;;;6.53;2.45;;;10.20;99.90;;;;;;4955311;28;20035;-76
2023/05/15 05:48:15;;;;;;;3.05;2.40;;;10.30;99.90;;;;;;4954733;29;20034;-76
2023/05/15 05:50:41;;;;;;;2.70;2.08;;;10.40;99.90;;;;;;4954943;28;20118;-76
2023/05/15 05:53:06;;;;;;;3.47;2.88;;;10.40;99.90;;;;;;4955164;28;20023;-76
2023/05/15 05:55:32;;;;;;;3.47;2.65;;;10.60;99.90;;;;;;4955075;28;20396;-76
2023/05/15 05:57:58;;;;;;;4.07;3.08;;;10.90;99.90;;;;;;4954754;29;20396;-76
2023/05/15 06:00:24;;;;;;;5.00;2.75;;;11.10;99.90;;;;;;4954957;29;20030;-76
2023/05/15 06:02:55;;;;;;;2.72;2.50;;;11.30;99.90;;;;;;4954659;28;20061;-76
2023/05/15 06:05:22;;;;;;;2.95;2.47;;;11.20;99.90;;;;;;4953721;29;20031;-76
2023/05/15 06:07:48;;;;;;;7.20;2.83;;;11.10;99.90;;;;;;4954403;28;20510;-76
2023/05/15 06:10:13;;;;;;;2.72;2.53;;;11.30;99.90;;;;;;4954973;28;20031;-76
2023/05/15 06:12:39;;;;;;;2.95;2.38;;;11.40;99.90;;;;;;4955237;28;20032;-76
2023/05/15 06:15:05;;;;;;;2.72;1.98;;;11.50;99.90;;;;;;4953439;28;20486;-76
2023/05/15 06:17:31;;;;;;;3.65;3.35;;;11.60;99.90;;;;;;4954620;28;20087;-76
2023/05/15 06:19:57;;;;;;;1.88;1.67;;;11.50;99.90;;;;;;4969312;28;20031;-76
2023/05/15 06:22:22;;;;;;;2.58;1.90;;;11.60;99.90;;;;;;4954185;29;20481;-76
2023/05/15 06:24:48;;;;;;;2.67;2.15;;;11.80;99.90;;;;;;4954384;28;20109;-76
2023/05/15 06:27:13;;;;;;;2.30;1.92;;;11.90;99.90;;;;;;4954476;29;20035;-76
2023/05/15 06:29:39;;;;;;;2.28;2.05;;;11.80;99.90;;;;;;4953422;29;20042;-76
2023/05/15 06:32:05;;;;;;;1.83;1.55;;;11.80;99.90;;;;;;4953199;28;20115;-76
2023/05/15 06:34:31;;;;;;;3.45;2.60;;;12.00;99.90;;;;;;4953771;28;20082;-76
2023/05/15 06:36:56;;;;;;;1.80;1.70;;;12.00;99.90;;;;;;4953976;29;20023;-76
2023/05/15 06:39:22;;;;;;;1.88;1.77;;;12.10;99.90;;;;;;4953017;29;20031;-76
2023/05/15 06:41:48;;;;;;;1.90;1.70;;;12.00;99.90;;;;;;4953514;29;20388;-77
2023/05/15 06:44:13;;;;;;;1.60;1.50;;;12.20;99.90;;;;;;4953752;28;20058;-77
2023/05/15 06:46:39;;;;;;;1.70;1.60;;;12.20;99.90;;;;;;4952458;29;20031;-78
2023/05/15 06:49:05;;;;;;;5.45;1.27;;;12.30;99.90;;;;;;4968434;28;20473;-76
2023/05/15 06:51:30;;;;;;;1.90;1.80;;;12.50;99.90;;;;;;4953408;28;20031;-77
2023/05/15 06:53:56;;;;;;;2.15;1.65;;;12.50;99.90;;;;;;4952981;28;20385;-77
2023/05/15 06:56:22;;;;;;;1.92;1.80;;;12.80;99.90;;;;;;4953923;28;20019;-78
2023/05/15 06:58:48;;;;;;;1.77;1.60;;;13.10;99.90;;;;;;4960947;28;20018;-78
2023/05/15 07:01:14;;;;;;;1.75;1.65;;;13.40;99.90;;;;;;4988296;28;20550;-78
2023/05/15 07:03:41;;;;;;;1.60;1.17;;;13.40;99.90;;;;;;4986363;28;20038;-78
2023/05/15 07:06:07;;;;;;;1.20;1.10;;;13.40;99.90;;;;;;4972966;28;20030;-77
2023/05/15 07:08:33;;;;;;;1.35;1.25;;;13.70;99.90;;;;;;4971515;28;20377;-77
2023/05/15 07:10:58;;;;;;;1.30;1.08;;;13.90;99.90;;;;;;4972610;28;20116;-76
2023/05/15 07:13:24;;;;;;;1.40;1.30;;;13.90;99.90;;;;;;4972838;28;20027;-76
2023/05/15 07:15:49;;;;;;;2.38;1.73;;;13.90;99.90;;;;;;4972890;28;20034;-76
2023/05/15 07:18:15;;;;;;;1.55;1.45;;;14.10;99.90;;;;;;4973091;28;20046;-76
2023/05/15 07:20:41;;;;;;;1.60;1.40;;;14.20;99.90;;;;;;4965782;28;20027;-76
2023/05/15 07:23:06;;;;;;;2.28;1.70;;;14.30;99.90;;;;;;4955102;28;20110;-76
2023/05/15 07:25:32;;;;;;;1.42;1.33;;;14.50;99.90;;;;;;4972103;28;20035;-77
2023/05/15 07:27:58;;;;;;;1.23;1.13;;;14.50;99.90;;;;;;4972138;28;20070;-77
2023/05/15 07:30:24;;;;;;;1.95;1.60;;;14.50;99.90;;;;;;4971125;28;20023;-76
2023/05/15 07:32:50;;;;;;;2.70;1.60;;;14.60;99.90;;;;;;4987818;28;20042;-77
2023/05/15 07:35:15;;;;;;;0.93;0.93;;;14.80;99.90;;;;;;4971774;28;20027;-76
2023/05/15 07:37:41;;;;;;;1.75;1.50;;;14.90;99.90;;;;;;4972998;28;20034;-77
2023/05/15 07:40:07;;;;;;;2.38;1.83;;;15.10;99.90;;;;;;4972393;28;20023;-76
2023/05/15 07:42:33;;;;;;;1.23;1.13;;;14.90;99.90;;;;;;4972924;28;20031;-77
2023/05/15 07:44:58;;;;;;;1.27;1.17;;;14.90;99.90;;;;;;4972497;28;20506;-76
2023/05/15 07:47:24;;;;;;;2.63;1.23;;;14.90;99.90;;;;;;4972464;28;20046;-77
2023/05/15 07:49:50;;;;;;;1.45;1.35;;;15.10;99.90;;;;;;4973034;28;20041;-76
2023/05/15 07:52:15;;;;;;;1.40;1.30;;;15.40;99.90;;;;;;4955178;28;20027;-77
2023/05/15 07:54:41;;;;;;;1.38;1.20;;;15.60;99.90;;;;;;4955408;28;20105;-77
2023/05/15 07:57:07;;;;;;;0.73;0.73;;;15.80;99.90;;;;;;4967135;28;20031;-76
2023/05/15 07:59:34;;;;;;;2.20;2.05;;;15.90;99.90;;;;;;4962424;28;20075;-76
2023/05/15 08:02:00;;;;;;;1.23;0.88;;;16.10;99.90;;;;;;4948986;28;20027;-76
2023/05/15 08:04:25;;;;;;;0.93;0.93;;;16.10;99.90;;;;;;4970577;28;20396;-77
2023/05/15 08:06:51;;;;;;;0.90;0.90;;;16.20;99.90;;;;;;4969023;28;20105;-76
2023/05/15 08:09:17;;;;;;;1.75;0.70;;;16.10;99.90;;;;;;4972250;28;20031;-75
2023/05/15 08:11:43;;;;;;;0.80;0.80;;;16.10;99.90;;;;;;4987234;28;20027;-76
2023/05/15 08:14:08;;;;;;;0.63;0.63;;;16.40;99.90;;;;;;4973097;28;20026;-76
2023/05/15 08:16:34;;;;;;;0.88;0.80;;;16.70;99.90;;;;;;4972855;28;20041;-75
2023/05/15 08:19:03;;;;;;;0.60;0.60;;;16.70;99.90;;;;;;4974900;28;20058;-76
2023/05/15 08:21:29;;;;;;;1.05;0.70;;;16.50;99.90;;;;;;4991210;28;20034;-76
2023/05/15 08:23:55;;;;;;;1.10;1.00;;;16.50;99.90;;;;;;4974631;28;20555;-76
2023/05/15 08:26:21;;;;;;;0.55;0.55;;;16.40;99.90;;;;;;4975987;28;20110;-76
2023/05/15 08:28:47;;;;;;;0.75;0.70;;;16.50;99.90;;;;;;4976065;28;20465;-76
2023/05/15 08:31:13;;;;;;;0.52;0.52;;;16.40;99.90;;;;;;4975992;28;20027;-76
2023/05/15 08:33:38;;;;;;;2.05;0.80;;;16.40;99.90;;;;;;4974663;28;20026;-76
2023/05/15 08:36:04;;;;;;;0.68;0.65;;;16.60;99.90;;;;;;4975837;28;20025;-76
2023/05/15 08:38:30;;;;;;;0.43;0.43;;;16.70;99.90;;;;;;4975545;28;20034;-76
2023/05/15 08:41:01;;;;;;;0.90;0.90;;;16.70;99.90;;;;;;4975864;28;20069;-76
2023/05/15 08:43:30;;;;;;;0.40;0.40;;;16.90;99.90;;;;;;4975915;28;20487;-76
2023/05/15 08:45:57;;;;;;;0.73;0.73;;;17.00;99.90;;;;;;4975723;28;20025;-75
2023/05/15 08:48:27;;;;;;;0.77;0.63;;;17.20;99.90;;;;;;4975133;28;20098;-76
2023/05/15 08:50:54;;;;;;;0.60;0.60;;;17.40;99.90;;;;;;4974463;28;20067;-75
2023/05/15 08:53:20;;;;;;;0.50;0.50;;;17.20;99.90;;;;;;4970963;28;20027;-77
2023/05/15 08:55:46;;;;;;;0.55;0.55;;;17.20;99.90;;;;;;4956337;28;20155;-76
2023/05/15 08:58:12;;;;;;;1.83;0.50;;;17.20;99.90;;;;;;4954420;29;20055;-76
2023/05/15 09:00:38;;;;;;;0.55;0.50;;;17.20;99.90;;;;;;4956191;28;20027;-76
2023/05/15 09:03:04;;;;;;;0.80;0.68;;;17.50;99.90;;;;;;4956094;28;20118;-76
2023/05/15 09:05:30;;;;;;;0.60;0.60;;;17.80;99.90;;;;;;4955955;28;20365;-76
2023/05/15 09:07:58;;;;;;;0.93;0.50;;;17.80;99.90;;;;;;4955797;28;20086;-77
2023/05/15 09:10:24;;;;;;;0.73;0.35;;;17.50;99.90;;;;;;4956194;28;20515;-77
2023/05/15 09:12:51;;;;;;;0.40;0.40;;;18.10;99.90;;;;;;4957419;28;20031;-77
2023/05/15 09:15:21;;;;;;;0.63;0.63;;;17.90;98.70;;;;;;4957215;28;20032;-77
2023/05/15 09:17:47;;;;;;;0.60;0.45;;;18.20;99.90;;;;;;4957045;28;20099;-77
2023/05/15 09:20:33;;;;;;;0.93;0.60;;;18.30;99.90;;;;;;4956225;28;20150;-77
2023/05/15 09:23:01;;;;;;;0.85;0.75;;;18.50;99.90;;;;;;4955110;28;20027;-77
2023/05/15 09:25:34;;;;;;;0.60;0.45;;;18.50;97.50;;;;;;4955905;28;20058;-76
2023/05/15 09:28:00;;;;;;;0.30;0.30;;;18.30;98.40;;;;;;4955313;29;20054;-77
2023/05/15 09:30:26;;;;;;;0.32;0.32;;;18.10;98.70;;;;;;4955331;29;20425;-77
2023/05/15 09:32:54;;;;;;;1.80;0.47;;;18.10;99.90;;;;;;4956416;28;20078;-77
2023/05/15 09:35:46;;;;;;;2.30;0.32;;;18.10;98.80;;;;;;4954911;29;20114;-77
2023/05/15 09:38:12;;;;;;;0.40;0.40;;;18.10;98.90;;;;;;4954547;28;20106;-77
2023/05/15 09:40:41;;;;;;;1.25;0.70;;;17.90;99.40;;;;;;4955969;28;20027;-76
2023/05/15 09:43:10;;;;;;;0.15;0.15;;;17.90;97.60;;;;;;4955647;28;20556;-76
2023/05/15 09:45:36;;;;;;;0.68;0.55;;;17.80;97.50;;;;;;4955527;28;20051;-76
2023/05/15 09:48:06;;;;;;;0.65;0.52;;;17.70;98.80;;;;;;4954284;28;20449;-77
2023/05/15 09:50:34;;;;;;;0.35;0.35;;;17.70;97.30;;;;;;4954044;29;20031;-77
2023/05/15 09:53:00;;;;;;;0.30;0.30;;;17.70;97.00;;;;;;4955497;28;20019;-76
2023/05/15 09:55:26;;;;;;;0.30;0.30;;;17.70;96.60;;;;;;4955978;28;20034;-77
2023/05/15 09:58:08;;;;;;;0.40;0.32;;;17.80;98.70;;;;;;4955545;28;20428;-77
2023/05/15 10:00:34;;;;;;;1.42;0.40;;;18.20;99.60;;;;;;4953796;29;20037;-76
2023/05/15 10:03:05;;;;;;;0.55;0.30;;;18.40;98.30;;;;;;4954861;28;20039;-76
2023/05/15 10:05:31;;;;;;;0.50;0.50;;;18.60;97.30;;;;;;4953552;29;20519;-74
2023/05/15 10:07:58;;;;;;;0.40;0.40;;;18.60;97.40;;;;;;4955082;28;20031;-76
2023/05/15 10:10:25;;;;;;;0.30;0.30;;;18.40;98.10;;;;;;4954231;29;20488;-77
2023/05/15 10:12:52;;;;;;;0.60;0.40;;;18.30;98.50;;;;;;4955050;28;20400;-76
2023/05/15 10:15:20;;;;;;;0.28;0.28;;;18.40;99.30;;;;;;4954875;28;20027;-76
2023/05/15 10:17:50;;;;;;;0.30;0.30;;;18.70;98.00;;;;;;4954916;28;20111;-76
2023/05/15 10:20:17;;;;;;;0.20;0.20;;;18.70;97.30;;;;;;4955140;28;20081;-77
2023/05/15 10:22:47;;;;;;;0.30;0.30;;;18.40;96.60;;;;;;4955012;28;20428;-76
2023/05/15 10:25:16;;;;;;;0.70;0.60;;;18.70;97.10;;;;;;4953669;29;20053;-76
2023/05/15 10:27:42;;;;;;;0.55;0.55;;;18.90;96.00;;;;;;4954808;28;20023;-76
2023/05/15 10:30:14;;;;;;;1.00;0.38;;;18.70;96.30;;;;;;4954860;28;20059;-76
2023/05/15 10:32:40;;;;;;;0.40;0.38;;;18.70;96.80;;;;;;4951196;28;20039;-76
2023/05/15 10:35:10;;;;;;;0.20;0.20;;;18.80;97.00;;;;;;4948262;29;20023;-76
2023/05/15 10:37:35;;;;;;;0.60;0.30;;;18.70;95.70;;;;;;4953838;28;20034;-76
2023/05/15 10:40:04;;;;;;;0.40;0.40;;;18.70;93.70;;;;;;4953288;29;20391;-76
2023/05/15 10:42:30;;;;;;;0.32;0.32;;;18.80;92.50;;;;;;4942981;28;20043;-77
2023/05/15 10:44:59;;;;;;;0.13;0.13;;;18.60;92.80;;;;;;4935303;29;20514;-76
2023/05/15 10:47:26;;;;;;;0.20;0.20;;;18.70;93.20;;;;;;4935563;28;20645;-77
2023/05/15 10:49:52;;;;;;;0.20;0.20;;;18.80;93.30;;;;;;4936073;29;20038;-76
2023/05/15 10:52:18;;;;;;;0.20;0.17;;;19.00;93.80;;;;;;4934384;29;20028;-77
2023/05/15 10:54:44;;;;;;;0.10;0.10;;;19.20;92.90;;;;;;4935592;29;20038;-77
2023/05/15 10:57:10;;;;;;;0.20;0.20;;;19.10;91.50;;;;;;4934284;29;20027;-77
2023/05/15 10:59:35;;;;;;;0.25;0.25;;;19.10;91.90;;;;;;4934222;29;20078;-77
2023/05/15 11:02:22;;;;;;;0.17;0.17;;;19.20;91.40;;;;;;4935570;29;20071;-77
2023/05/15 11:04:54;;;;;;;0.22;0.22;;;19.20;90.60;;;;;;4935622;28;20078;-77
2023/05/15 11:07:20;;;;;;;0.10;0.10;;;19.40;90.90;;;;;;4935363;29;20392;-77
2023/05/15 11:09:46;;;;;;;0.55;0.55;;;19.40;90.10;;;;;;4934599;29;20043;-77
2023/05/15 11:12:12;;;;;;;0.15;0.15;;;19.50;88.00;;;;;;4935721;29;20032;-77
2023/05/15 11:14:39;;;;;;;0.40;0.40;;;19.30;90.60;;;;;;4933641;29;20685;-77
2023/05/15 11:17:10;;;;;;;0.17;0.17;;;19.40;91.40;;;;;;4935760;28;20027;-77
2023/05/15 11:19:54;;;;;;;1.00;0.10;;;19.50;91.30;;;;;;4933813;29;20028;-77
2023/05/15 11:22:40;;;;;;;0.63;0.57;;;19.60;90.20;;;;;;4933859;29;20083;-77
2023/05/15 11:25:11;;;;;;;0.30;0.20;;;19.90;90.00;;;;;;4934805;28;20055;-77
2023/05/15 11:27:44;;;;;;;0.10;0.10;;;20.00;85.70;;;;;;4935268;29;20035;-77
2023/05/15 11:30:22;;;;;;;0.10;0.10;;;19.80;86.20;;;;;;4935438;28;20106;-77
2023/05/15 11:33:01;;;;;;;0.10;0.10;;;19.90;86.70;;;;;;4935332;29;20211;-77
2023/05/15 11:35:38;;;;;;;0.32;0.13;;;19.80;83.30;;;;;;4934041;29;20462;-76
2023/05/15 11:38:10;;;;;;;0.13;0.10;;;19.90;82.80;;;;;;4933525;29;20067;-77
2023/05/15 11:40:59;;;;;;;0.52;0.13;;;19.80;82.40;;;;;;4933955;29;20032;-76
2023/05/15 11:43:27;;;;;;;0.10;0.00;;;19.80;81.80;;;;;;4943940;28;20167;-79
2023/05/15 11:45:57;;;;;;;0.10;0.10;;;19.60;83.30;;;;;;4953415;29;20035;-77
2023/05/15 11:48:29;;;;;;;0.20;0.20;;;19.50;84.60;;;;;;4969329;28;20055;-77
2023/05/15 11:50:54;;;;;;;0.85;0.17;;;19.20;83.20;;;;;;4958495;28;20031;-78
2023/05/15 11:53:22;;;;;;;5.68;0.20;;;19.50;83.00;;;;;;4958024;28;20094;-76
2023/05/15 11:55:50;;;;;;;0.10;0.10;;;19.60;86.20;;;;;;4956645;29;20458;-77
2023/05/15 11:58:17;;;;;;;0.55;0.20;;;19.50;82.70;;;;;;4957850;28;20023;-77
2023/05/15 12:00:45;;;;;;;0.43;0.20;;;19.40;83.40;;;;;;4958778;28;20031;-77
2023/05/15 12:03:14;;;;;;;1.27;0.40;;;19.50;82.30;;;;;;4956948;28;20074;-77
2023/05/15 12:05:41;;;;;;;0.15;0.13;;;19.60;85.50;;;;;;4955807;29;20515;-77
2023/05/15 12:08:12;;;;;;;0.20;0.20;;;19.80;86.00;;;;;;4956530;28;20086;-77
2023/05/15 12:10:42;;;;;;;0.28;0.28;;;20.20;87.00;;;;;;4956490;29;20496;-78
2023/05/15 12:13:12;;;;;;;1.33;0.20;;;20.20;87.30;;;;;;4957924;28;20028;-78
2023/05/15 12:15:40;;;;;;;0.35;0.17;;;20.10;83.20;;;;;;4972621;28;20050;-77
2023/05/15 12:18:09;;;;;;;0.63;0.10;;;20.10;85.10;;;;;;4957717;28;20023;-77
2023/05/15 12:20:37;;;;;;;0.17;0.10;;;20.10;85.90;;;;;;4956481;29;20024;-77
2023/05/15 12:23:04;;;;;;;0.10;0.10;;;19.90;85.90;;;;;;4957705;28;20024;-77
2023/05/15 12:25:34;;;;;;;0.20;0.20;;;20.00;83.60;;;;;;4972100;28;20066;-77
2023/05/15 12:28:02;;;;;;;2.05;0.40;;;20.00;86.50;;;;;;4972287;28;20062;-78
2023/05/15 12:30:30;;;;;;;1.42;0.52;;;20.20;87.40;;;;;;4956368;29;20031;-77
2023/05/15 12:33:04;;;;;;;1.33;0.50;;;20.10;87.30;;;;;;4956392;28;20027;-77
2023/05/15 12:35:33;;;;;;;0.43;0.25;;;20.00;86.80;;;;;;4957492;28;20024;-77
2023/05/15 12:38:03;;;;;;;0.08;0.08;;;20.10;87.60;;;;;;4956189;28;20023;-77
2023/05/15 12:40:31;;;;;;;1.02;0.30;;;20.00;84.00;;;;;;4955841;29;20023;-77
2023/05/15 12:42:57;;;;;;;0.10;0.10;;;19.70;84.10;;;;;;4957112;28;20078;-77
2023/05/15 12:45:25;;;;;;;0.98;0.20;;;19.60;85.70;;;;;;4955934;28;20031;-77
2023/05/15 12:47:50;;;;;;;0.20;0.10;;;19.50;85.10;;;;;;4955729;29;20031;-77
2023/05/15 12:50:22;;;;;;;0.17;0.17;;;19.70;84.40;;;;;;4955765;29;20027;-77
2023/05/15 12:52:54;;;;;;;0.17;0.10;;;19.40;88.20;;;;;;4957009;28;20032;-77